Time;durP1;ratioP1;P1;durP2;ratioP2;P2;SDS_P1;SDS_P2;PMS_P1;PMS_P2;Temp;Humidity;BMP_temperature;BMP_pressure;BME280_temperature;BME280_humidity;BME280_pressure;Samples;Min_cycle;Max_cycle;Signal;HPM_P1;HPM_P2
2024/01/03 00:02:11;;;;;;;0.50;0.40;;;;;;;4.78;79.72;94856.40;110781;1266;22219;-81
2024/01/03 00:04:47;;;;;;;0.40;0.40;;;;;;;4.79;79.88;94848.54;110665;1272;95446;-81
2024/01/03 00:07:19;;;;;;;0.40;0.40;;;;;;;4.79;79.99;94844.39;110762;1269;23578;-81
2024/01/03 00:10:04;;;;;;;0.50;0.40;;;;;;;4.78;79.87;94833.86;110786;1269;22333;-81
2024/01/03 00:12:40;;;;;;;0.70;0.30;;;;;;;4.76;79.97;94831.78;110793;1272;22295;-81
2024/01/03 00:16:12;;;;;;;0.90;0.60;;;;;;;4.74;79.89;94826.05;110670;1271;65209;-81
2024/01/03 00:18:53;;;;;;;1.30;0.50;;;;;;;4.72;79.97;94828.14;110770;1266;22302;-81
2024/01/03 00:21:29;;;;;;;0.70;0.50;;;;;;;4.66;79.96;94818.27;110731;1270;22272;-81
2024/01/03 00:24:21;;;;;;;1.90;1.20;;;;;;;4.67;80.10;94820.29;110753;1269;22388;-81
2024/01/03 00:26:55;;;;;;;1.10;0.90;;;;;;;4.65;80.06;94816.91;110704;1272;22425;-81
2024/01/03 00:30:04;;;;;;;0.90;0.50;;;;;;;4.63;80.22;94812.83;110161;1272;22598;-81
2024/01/03 00:32:39;;;;;;;0.80;0.60;;;;;;;4.63;80.20;94808.04;109367;1265;23547;-80
2024/01/03 00:35:14;;;;;;;1.10;0.60;;;;;;;4.59;80.42;94798.76;109302;1272;55370;-81
2024/01/03 00:37:47;;;;;;;0.90;0.60;;;;;;;4.62;80.33;94803.12;109366;1272;22527;-81
2024/01/03 00:40:55;;;;;;;0.90;0.60;;;;;;;4.62;80.48;94804.50;109344;1269;22558;-81
2024/01/03 00:43:30;;;;;;;1.00;0.80;;;;;;;4.64;80.51;94800.98;109290;1272;22713;-80
2024/01/03 00:46:02;;;;;;;0.70;0.50;;;;;;;4.65;80.62;94795.96;109340;1270;45834;-81
2024/01/03 00:48:38;;;;;;;1.50;0.70;;;;;;;4.63;80.54;94796.61;109344;1272;22547;-81
2024/01/03 00:51:09;;;;;;;0.60;0.40;;;;;;;4.60;80.63;94795.98;109369;1271;22558;-80
2024/01/03 00:53:46;;;;;;;0.90;0.60;;;;;;;4.54;80.70;94790.71;109213;1266;22589;-81
2024/01/03 00:56:20;;;;;;;0.70;0.50;;;;;;;4.57;80.77;94791.77;109202;1266;99660;-81
2024/01/03 00:58:53;;;;;;;1.20;0.50;;;;;;;4.55;80.85;94790.81;109395;1272;22572;-81
2024/01/03 01:01:25;;;;;;;1.00;0.60;;;;;;;4.52;81.23;94792.79;109356;1272;22754;-80
2024/01/03 01:03:57;;;;;;;0.90;0.70;;;;;;;4.51;81.21;94784.56;109372;1272;22586;-80
2024/01/03 01:06:30;;;;;;;1.60;0.70;;;;;;;4.50;81.38;94784.92;107841;1266;2014551;-81
2024/01/03 01:09:04;;;;;;;1.80;0.50;;;;;;;4.50;81.53;94779.59;109351;1272;22542;-81
2024/01/03 01:11:44;;;;;;;1.00;0.60;;;;;;;4.51;81.50;94779.99;110724;1266;22884;-81
2024/01/03 01:14:21;;;;;;;0.90;0.60;;;;;;;4.50;81.87;94770.45;110775;1271;22372;-81
2024/01/03 01:17:07;;;;;;;0.90;0.60;;;;;;;4.50;82.02;94765.93;110635;1267;22357;-81
2024/01/03 01:19:55;;;;;;;1.00;0.80;;;;;;;4.51;82.12;94766.61;110673;1272;22100;-81
2024/01/03 01:22:30;;;;;;;0.80;0.60;;;;;;;4.52;82.04;94768.81;110657;1272;22197;-81
2024/01/03 01:25:12;;;;;;;2.20;0.70;;;;;;;4.54;82.40;94760.70;110648;1271;39874;-81
2024/01/03 01:28:02;;;;;;;0.80;0.40;;;;;;;4.56;82.50;94757.88;110747;1266;23108;-81
2024/01/03 01:30:45;;;;;;;1.30;0.70;;;;;;;4.55;82.73;94751.02;110751;1271;22404;-81
2024/01/03 01:33:17;;;;;;;0.40;0.40;;;;;;;4.55;82.84;94745.41;110751;1269;22258;-81
2024/01/03 01:35:48;;;;;;;1.30;0.40;;;;;;;4.60;83.01;94741.38;106818;1269;5069638;-81
2024/01/03 01:38:27;;;;;;;0.60;0.50;;;;;;;4.62;83.17;94737.09;110717;1272;22262;-81
2024/01/03 01:41:20;;;;;;;0.60;0.50;;;;;;;4.58;83.27;94742.42;110780;1271;22704;-81
2024/01/03 01:44:05;;;;;;;2.90;1.10;;;;;;;4.53;83.46;94741.87;110781;1266;22998;-81
2024/01/03 01:49:45;;;;;;;1.50;1.00;;;;;;;4.44;83.96;94727.39;110733;1272;23173;-81
2024/01/03 01:52:34;;;;;;;1.50;0.70;;;;;;;4.41;83.97;94715.96;110743;1269;23090;-81
2024/01/03 01:55:19;;;;;;;1.60;0.80;;;;;;;4.38;84.36;94710.77;110719;1272;56054;-81
2024/01/03 01:57:59;;;;;;;0.90;0.70;;;;;;;4.35;84.43;94703.55;110736;1272;22142;-81
2024/01/03 02:00:48;;;;;;;0.50;0.50;;;;;;;4.32;84.59;94698.93;110752;1272;23057;-81
2024/01/03 02:03:29;;;;;;;0.90;0.60;;;;;;;4.30;85.13;94694.08;110771;1272;22266;-81
2024/01/03 02:06:16;;;;;;;1.30;0.50;;;;;;;4.32;85.54;94683.55;110653;1271;114332;-81
2024/01/03 02:08:54;;;;;;;0.50;0.20;;;;;;;4.36;85.73;94685.39;110755;1272;22272;-82
2024/01/03 02:11:58;;;;;;;0.90;0.30;;;;;;;4.40;85.94;94684.55;110751;1271;22304;-81
2024/01/03 02:14:48;;;;;;;0.60;0.20;;;;;;;4.43;86.15;94688.75;110752;1272;22858;-81
2024/01/03 02:17:24;;;;;;;0.90;0.20;;;;;;;4.46;86.35;94684.14;110676;1272;22431;-81
2024/01/03 02:20:00;;;;;;;0.80;0.30;;;;;;;4.53;86.47;94680.63;110730;1272;22212;-81
2024/01/03 02:22:48;;;;;;;0.40;0.30;;;;;;;4.56;86.25;94668.82;110759;1266;22236;-81
2024/01/03 02:25:32;;;;;;;0.20;0.10;;;;;;;4.56;86.27;94663.98;109354;1267;1765830;-81
2024/01/03 02:28:13;;;;;;;0.70;0.30;;;;;;;4.60;86.28;94654.67;110721;1272;22667;-81
2024/01/03 02:30:48;;;;;;;0.20;0.10;;;;;;;4.60;86.36;94654.83;110750;1271;22393;-81
2024/01/03 02:33:47;;;;;;;0.20;0.20;;;;;;;4.58;86.33;94655.55;110784;1266;22920;-81
2024/01/03 02:36:26;;;;;;;0.70;0.30;;;;;;;4.59;86.45;94647.10;110557;1272;51349;-81
2024/01/03 02:39:03;;;;;;;0.10;0.10;;;;;;;4.59;86.76;94646.40;110702;1269;22486;-81
2024/01/03 02:42:00;;;;;;;0.40;0.30;;;;;;;4.59;86.77;94651.11;110742;1266;22415;-81
2024/01/03 02:44:52;;;;;;;0.70;0.30;;;;;;;4.60;86.68;94649.13;110632;1267;23050;-81
2024/01/03 02:47:34;;;;;;;0.50;0.10;;;;;;;4.62;86.63;94647.92;110634;1272;22181;-81
2024/01/03 02:50:11;;;;;;;0.20;0.10;;;;;;;4.70;87.05;94634.48;110613;1270;22391;-81
2024/01/03 02:52:47;;;;;;;0.20;0.10;;;;;;;4.82;87.00;94641.23;110636;1272;22295;-81
2024/01/03 02:58:28;;;;;;;;;;;;;;;;;;;;;
2024/01/03 03:01:06;;;;;;;0.10;0.10;;;;;;;4.82;86.89;94640.46;110709;1272;22209;-81
2024/01/03 03:03:44;;;;;;;0.20;0.10;;;;;;;4.76;86.89;94643.73;110429;1272;23359;-81
2024/01/03 03:06:21;;;;;;;0.20;0.20;;;;;;;4.70;87.19;94639.66;108818;1269;1732523;-81
2024/01/03 03:08:57;;;;;;;0.30;0.20;;;;;;;4.67;87.33;94642.71;110771;1272;22310;-81
2024/01/03 03:11:35;;;;;;;0.00;0.00;;;;;;;4.67;87.64;94635.64;110757;1266;22266;-81
2024/01/03 03:14:27;;;;;;;0.20;0.10;;;;;;;4.66;88.17;94626.77;110628;1260;22198;-81
2024/01/03 03:17:13;;;;;;;0.00;0.00;;;;;;;4.64;89.22;94608.11;109331;1271;1807149;-81
2024/01/03 03:19:48;;;;;;;0.10;0.10;;;;;;;4.75;89.46;94619.15;110777;1267;23046;-81
2024/01/03 03:22:28;;;;;;;0.50;0.40;;;;;;;4.70;89.05;94621.76;110720;1269;22292;-81
2024/01/03 03:25:19;;;;;;;0.10;0.10;;;;;;;4.65;89.34;94613.56;110767;1272;22177;-81
2024/01/03 03:27:57;;;;;;;0.10;0.10;;;;;;;4.60;89.60;94612.69;110750;1271;22185;-81
2024/01/03 03:30:45;;;;;;;0.90;0.30;;;;;;;4.62;90.24;94618.85;110773;1268;22424;-81
2024/01/03 03:33:21;;;;;;;0.20;0.20;;;;;;;4.60;90.18;94616.27;110772;1272;22312;-81
2024/01/03 03:35:52;;;;;;;0.20;0.10;;;;;;;4.61;90.41;94611.92;110647;1272;70285;-81
2024/01/03 03:38:37;;;;;;;0.10;0.10;;;;;;;4.60;90.57;94607.54;110753;1272;22388;-81
2024/01/03 03:41:27;;;;;;;0.30;0.30;;;;;;;4.58;90.81;94600.29;110746;1272;23048;-81
2024/01/03 03:44:06;;;;;;;0.10;0.10;;;;;;;4.56;90.84;94602.64;110633;1266;22174;-81
2024/01/03 03:46:57;;;;;;;0.20;0.10;;;;;;;4.52;90.70;94595.26;110758;1271;52592;-81
2024/01/03 03:49:37;;;;;;;0.90;0.10;;;;;;;4.50;90.90;94597.11;110734;1269;22271;-81
2024/01/03 03:52:30;;;;;;;0.10;0.10;;;;;;;4.47;90.87;94599.11;109340;1269;22547;-81
2024/01/03 03:55:13;;;;;;;0.10;0.10;;;;;;;4.45;91.41;94597.67;109339;1269;22462;-81
2024/01/03 03:57:52;;;;;;;0.10;0.10;;;;;;;4.46;91.59;94598.95;109196;1273;22558;-81
2024/01/03 04:00:28;;;;;;;0.30;0.10;;;;;;;4.47;91.65;94602.27;109213;1272;22557;-81
2024/01/03 04:03:07;;;;;;;1.00;0.30;;;;;;;4.47;91.71;94599.73;109211;1266;22502;-81
2024/01/03 04:05:44;;;;;;;0.40;0.20;;;;;;;4.43;91.88;94596.77;110575;1270;34375;-81
2024/01/03 04:08:19;;;;;;;0.30;0.20;;;;;;;4.40;92.18;94594.52;110719;1266;22156;-81
2024/01/03 04:10:54;;;;;;;0.10;0.10;;;;;;;4.37;92.23;94580.83;110794;1271;23171;-81
2024/01/03 04:13:26;;;;;;;0.20;0.20;;;;;;;4.38;92.64;94590.30;110698;1269;22198;-81
2024/01/03 04:16:02;;;;;;;0.10;0.10;;;;;;;4.40;92.65;94588.64;110701;1269;75431;-81
2024/01/03 04:18:45;;;;;;;0.40;0.20;;;;;;;4.39;93.08;94579.73;110738;1269;22184;-81
2024/01/03 04:21:17;;;;;;;1.80;0.20;;;;;;;4.39;92.94;94589.64;110773;1271;22544;-81
2024/01/03 04:23:50;;;;;;;0.40;0.20;;;;;;;4.38;93.06;94588.45;110719;1271;22181;-81
2024/01/03 04:26:26;;;;;;;0.30;0.10;;;;;;;4.40;93.19;94591.27;110754;1272;37098;-81
2024/01/03 04:29:01;;;;;;;0.40;0.30;;;;;;;4.41;93.18;94599.48;110742;1269;22133;-81
2024/01/03 04:31:32;;;;;;;0.50;0.30;;;;;;;4.41;93.28;94599.11;110770;1272;22483;-81
2024/01/03 04:34:09;;;;;;;0.60;0.30;;;;;;;4.44;93.48;94605.93;110738;1272;22636;-81
2024/01/03 04:36:50;;;;;;;0.20;0.20;;;;;;;4.49;93.55;94606.14;110597;1269;43529;-81
2024/01/03 04:39:23;;;;;;;0.20;0.20;;;;;;;4.51;93.41;94604.88;110631;1272;22247;-81
2024/01/03 04:41:57;;;;;;;0.10;0.10;;;;;;;4.60;93.78;94608.55;110782;1266;22869;-81
2024/01/03 04:44:45;;;;;;;0.40;0.10;;;;;;;4.74;94.19;94605.52;110785;1269;22181;-81
2024/01/03 04:47:18;;;;;;;0.20;0.00;;;;;;;4.84;94.15;94613.59;109122;1270;2057854;-81
2024/01/03 04:49:57;;;;;;;0.60;0.20;;;;;;;4.98;94.53;94605.66;110742;1266;22343;-81
2024/01/03 04:52:28;;;;;;;0.10;0.10;;;;;;;5.08;94.41;94615.88;110765;1266;22173;-81
2024/01/03 04:55:03;;;;;;;0.30;0.10;;;;;;;5.11;94.13;94615.23;110743;1272;23047;-81
2024/01/03 04:57:38;;;;;;;0.00;0.00;;;;;;;5.04;93.92;94613.58;109155;1264;2086875;-81
2024/01/03 05:00:16;;;;;;;0.10;0.10;;;;;;;5.14;94.63;94608.41;110751;1268;22252;-81
2024/01/03 05:02:49;;;;;;;0.70;0.30;;;;;;;5.20;94.14;94625.41;110704;1266;22286;-81
2024/01/03 05:05:26;;;;;;;0.30;0.20;;;;;;;5.04;93.35;94625.82;110754;1271;22171;-81
2024/01/03 05:07:58;;;;;;;0.50;0.30;;;;;;;4.96;93.66;94629.08;110676;1270;60920;-81
2024/01/03 05:10:31;;;;;;;0.40;0.20;;;;;;;4.88;93.73;94628.79;110744;1272;22236;-81
2024/01/03 05:13:08;;;;;;;0.40;0.20;;;;;;;4.89;93.82;94633.44;110791;1270;22252;-81
2024/01/03 05:15:47;;;;;;;0.20;0.20;;;;;;;4.87;94.03;94632.19;106707;1272;5176834;-81
2024/01/03 05:18:26;;;;;;;0.90;0.40;;;;;;;4.86;93.96;94639.86;110600;1267;22555;-81
2024/01/03 05:21:13;;;;;;;0.50;0.30;;;;;;;4.81;94.17;94634.18;109380;1272;22687;-81
2024/01/03 05:23:51;;;;;;;1.00;0.60;;;;;;;4.75;94.21;94635.52;109321;1269;22529;-80
2024/01/03 05:26:23;;;;;;;;;;;;;;;4.72;94.54;94635.36;108006;1272;1762977;-81
2024/01/03 05:28:59;;;;;;;0.40;0.40;;;;;;;4.71;94.89;94639.64;109352;1272;23737;-80
2024/01/03 05:31:40;;;;;;;0.80;0.40;;;;;;;4.68;94.95;94630.25;109336;1272;22490;-81
2024/01/03 05:34:17;;;;;;;1.00;0.40;;;;;;;4.67;95.00;94624.92;109359;1269;24219;-81
2024/01/03 05:36:49;;;;;;;1.00;0.50;;;;;;;4.67;95.55;94622.40;109316;1266;55870;-81
2024/01/03 05:39:22;;;;;;;0.90;0.40;;;;;;;4.68;95.62;94635.97;109334;1272;25454;-81
2024/01/03 05:41:56;;;;;;;0.70;0.40;;;;;;;4.76;96.50;94643.60;109358;1272;23675;-81
2024/01/03 05:44:33;;;;;;;1.60;0.60;;;;;;;4.81;96.40;94638.08;109359;1266;24201;-81
2024/01/03 05:47:12;;;;;;;1.70;0.60;;;;;;;4.82;96.58;94642.40;107848;1272;2000030;-81
2024/01/03 05:50:01;;;;;;;0.70;0.30;;;;;;;4.83;96.66;94644.00;109429;1272;22482;-81
2024/01/03 05:52:35;;;;;;;1.60;0.70;;;;;;;4.87;96.72;94646.08;109404;1271;24269;-81
2024/01/03 05:55:16;;;;;;;1.70;0.50;;;;;;;4.85;96.68;94648.12;109364;1254;23038;-81
2024/01/03 05:57:53;;;;;;;0.80;0.50;;;;;;;4.82;96.78;94654.53;109241;1270;97268;-81
2024/01/03 06:00:31;;;;;;;0.70;0.60;;;;;;;4.78;96.80;94659.46;109349;1272;22554;-81
2024/01/03 06:03:07;;;;;;;0.90;0.40;;;;;;;4.76;97.09;94666.94;109401;1271;22497;-81
2024/01/03 06:05:44;;;;;;;1.00;0.50;;;;;;;4.76;97.25;94672.09;109367;1257;22671;-81
2024/01/03 06:08:16;;;;;;;0.40;0.40;;;;;;;4.74;97.29;94666.50;109335;1272;25881;-81
2024/01/03 06:10:58;;;;;;;0.70;0.50;;;;;;;4.74;97.68;94673.09;109390;1272;22579;-81
2024/01/03 06:13:35;;;;;;;0.80;0.70;;;;;;;4.75;97.78;94667.48;109376;1270;22534;-81
2024/01/03 06:16:15;;;;;;;1.70;0.60;;;;;;;4.74;97.73;94675.44;109260;1264;55642;-81
2024/01/03 06:18:47;;;;;;;1.40;1.00;;;;;;;4.72;97.86;94674.20;109335;1272;22555;-81
2024/01/03 06:21:19;;;;;;;2.40;0.80;;;;;;;4.72;98.05;94674.11;109340;1272;25460;-81
2024/01/03 06:23:53;;;;;;;1.70;0.90;;;;;;;4.71;98.22;94673.45;109363;1272;22513;-81
2024/01/03 06:26:35;;;;;;;2.50;1.60;;;;;;;4.71;98.32;94672.83;109308;1272;53224;-81
2024/01/03 06:29:10;;;;;;;2.10;1.70;;;;;;;4.71;98.33;94674.06;109276;1272;22555;-81
2024/01/03 06:31:47;;;;;;;1.80;1.20;;;;;;;4.75;98.76;94679.46;109378;1272;22535;-81
2024/01/03 06:34:20;;;;;;;2.30;1.50;;;;;;;4.78;98.65;94684.73;109341;1269;25442;-81
2024/01/03 06:36:51;;;;;;;2.50;1.00;;;;;;;4.79;98.83;94696.27;107667;1272;2241264;-81
2024/01/03 06:39:29;;;;;;;1.50;1.10;;;;;;;4.82;99.03;94695.90;109349;1272;22554;-81
2024/01/03 06:42:09;;;;;;;2.20;1.00;;;;;;;4.82;99.20;94691.23;109265;1272;22605;-81
2024/01/03 06:44:46;;;;;;;1.30;0.90;;;;;;;4.89;99.44;94695.77;109393;1267;22471;-81
2024/01/03 06:47:19;;;;;;;1.20;0.60;;;;;;;4.90;99.40;94693.65;109271;1270;78714;-81
2024/01/03 06:49:56;;;;;;;1.70;0.90;;;;;;;4.92;99.69;94696.45;109383;1263;22652;-81
2024/01/03 06:52:28;;;;;;;2.60;1.30;;;;;;;4.90;99.72;94694.54;109217;1273;22740;-81
2024/01/03 06:55:05;;;;;;;2.60;1.00;;;;;;;4.91;99.81;94703.45;109387;1263;22679;-81
2024/01/03 06:57:43;;;;;;;1.00;0.70;;;;;;;4.93;100.00;94708.63;105373;1269;5284431;-81
2024/01/03 07:00:27;;;;;;;0.80;0.60;;;;;;;5.02;100.00;94719.02;109406;1272;22718;-81
2024/01/03 07:03:06;;;;;;;0.80;0.50;;;;;;;5.13;100.00;94718.05;109318;1272;24078;-81
2024/01/03 07:05:40;;;;;;;0.70;0.40;;;;;;;5.23;100.00;94710.15;109419;1272;22597;-80
2024/01/03 07:08:18;;;;;;;1.60;0.70;;;;;;;5.34;100.00;94724.45;108993;1272;2077061;-81
2024/01/03 07:10:53;;;;;;;0.30;0.20;;;;;;;5.34;100.00;94725.04;109351;1272;23153;-80
2024/01/03 07:13:28;;;;;;;1.60;0.90;;;;;;;5.42;100.00;94731.20;109365;1272;22785;-80
2024/01/03 07:16:10;;;;;;;2.00;1.10;;;;;;;5.40;100.00;94730.45;109346;1270;23490;-81
2024/01/03 07:18:47;;;;;;;1.90;1.00;;;;;;;5.29;100.00;94729.41;109327;1269;22539;-81
2024/01/03 07:21:25;;;;;;;2.10;1.30;;;;;;;5.23;100.00;94733.37;109361;1270;22552;-81
2024/01/03 07:24:04;;;;;;;2.20;1.30;;;;;;;5.18;100.00;94733.40;109363;1270;25415;-81
2024/01/03 07:26:39;;;;;;;2.60;1.60;;;;;;;5.13;100.00;94743.67;109308;1269;45184;-81
2024/01/03 07:29:15;;;;;;;3.70;1.60;;;;;;;5.12;100.00;94741.29;109336;1272;25570;-81
2024/01/03 07:31:49;;;;;;;1.80;1.20;;;;;;;5.10;100.00;94728.20;109376;1272;25414;-81
2024/01/03 07:34:26;;;;;;;1.60;1.30;;;;;;;5.10;100.00;94732.88;109364;1269;24202;-81
2024/01/03 07:37:03;;;;;;;2.00;1.20;;;;;;;5.09;100.00;94730.58;109294;1268;59820;-81
2024/01/03 07:39:40;;;;;;;2.70;1.70;;;;;;;5.08;100.00;94734.85;109340;1269;22562;-81
2024/01/03 07:42:17;;;;;;;3.00;1.80;;;;;;;5.09;100.00;94733.58;109385;1261;22521;-82
2024/01/03 07:44:54;;;;;;;2.70;1.70;;;;;;;5.10;100.00;94735.70;109350;1272;22545;-82
2024/01/03 07:47:28;;;;;;;3.70;1.90;;;;;;;5.12;100.00;94729.31;105474;1269;5083801;-82
2024/01/03 07:50:09;;;;;;;5.30;2.00;;;;;;;5.13;100.00;94719.16;109356;1272;22582;-81
2024/01/03 07:52:46;;;;;;;;;;;;;;;5.12;100.00;94717.23;109348;1267;22553;-81
2024/01/03 07:55:18;;;;;;;2.50;1.80;;;;;;;5.15;100.00;94718.33;109390;1272;24419;-82
2024/01/03 07:57:54;;;;;;;3.90;2.40;;;;;;;5.21;100.00;94717.02;109352;1272;46391;-81
2024/01/03 08:00:30;;;;;;;3.60;2.50;;;;;;;5.26;100.00;94717.23;109390;1269;22619;-81
2024/01/03 08:03:05;;;;;;;3.20;2.30;;;;;;;5.26;100.00;94716.81;109389;1270;22532;-81
2024/01/03 08:05:42;;;;;;;2.80;2.30;;;;;;;5.31;100.00;94723.71;109371;1266;22592;-81
2024/01/03 08:08:19;;;;;;;2.30;1.80;;;;;;;5.37;100.00;94724.67;107746;1270;2104271;-81
2024/01/03 08:10:54;;;;;;;3.20;1.80;;;;;;;5.45;100.00;94725.70;109336;1272;24318;-81
2024/01/03 08:13:36;;;;;;;2.10;1.40;;;;;;;5.52;100.00;94725.70;109381;1272;22658;-81
2024/01/03 08:16:23;;;;;;;2.60;1.20;;;;;;;5.61;100.00;94727.47;109339;1270;23055;-81
2024/01/03 08:19:01;;;;;;;1.00;0.80;;;;;;;5.74;100.00;94725.21;109317;1267;25332;-81
2024/01/03 08:21:40;;;;;;;1.90;0.90;;;;;;;5.85;100.00;94729.98;109376;1264;22533;-81
2024/01/03 08:24:17;;;;;;;1.70;0.80;;;;;;;5.90;100.00;94726.60;109383;1272;22497;-80
2024/01/03 08:27:06;;;;;;;2.70;1.00;;;;;;;5.94;100.00;94730.96;109243;1266;122672;-81
2024/01/03 08:29:48;;;;;;;1.60;1.10;;;;;;;6.01;100.00;94735.52;109382;1272;22587;-81
2024/01/03 08:32:25;;;;;;;1.80;1.10;;;;;;;6.03;100.00;94731.66;109368;1266;22622;-80
2024/01/03 08:35:02;;;;;;;0.20;0.20;;;;;;;6.09;100.00;94736.54;109348;1272;22556;-81
2024/01/03 08:37:48;;;;;;;2.00;1.10;;;;;;;6.08;100.00;94730.13;107818;1267;2040505;-81
2024/01/03 08:40:24;;;;;;;1.20;0.90;;;;;;;6.07;100.00;94734.11;109365;1272;22650;-81
2024/01/03 08:43:05;;;;;;;1.30;0.70;;;;;;;6.10;100.00;94736.67;109389;1272;24391;-81
2024/01/03 08:45:57;;;;;;;1.00;0.70;;;;;;;6.13;100.00;94745.92;109361;1267;24231;-81
2024/01/03 08:48:33;;;;;;;1.40;0.90;;;;;;;6.18;100.00;94753.13;106594;1269;5343561;-82
2024/01/03 08:51:22;;;;;;;1.20;1.00;;;;;;;6.26;100.00;94757.46;109640;1266;22518;-82
2024/01/03 08:54:11;;;;;;;0.90;0.70;;;;;;;6.31;100.00;94760.63;109395;1265;22544;-81
2024/01/03 08:56:48;;;;;;;1.00;0.80;;;;;;;6.33;100.00;94762.39;110682;1266;54334;-81
2024/01/03 08:59:25;;;;;;;1.50;1.10;;;;;;;6.34;100.00;94754.48;110734;1267;22330;-82
2024/01/03 09:02:16;;;;;;;2.60;1.10;;;;;;;6.35;100.00;94754.92;110676;1272;22972;-82
2024/01/03 09:11:15;;;;;;;3.00;1.30;;;;;;;6.55;100.00;94765.96;110758;1266;22285;-82
2024/01/03 09:13:56;;;;;;;1.90;1.00;;;;;;;6.61;100.00;94758.59;110715;1266;22393;-82
2024/01/03 09:16:50;;;;;;;2.30;1.30;;;;;;;6.63;100.00;94754.79;109221;1265;123551;-81
2024/01/03 09:19:22;;;;;;;2.20;1.60;;;;;;;6.69;100.00;94759.59;109299;1272;22566;-81
2024/01/03 09:21:59;;;;;;;2.30;1.10;;;;;;;6.70;100.00;94763.81;109401;1269;24182;-81
2024/01/03 09:24:36;;;;;;;2.40;1.30;;;;;;;6.76;100.00;94765.29;109334;1250;22559;-82
2024/01/03 09:27:15;;;;;;;2.80;1.10;;;;;;;6.79;100.00;94763.20;109334;1267;65224;-81
2024/01/03 09:29:52;;;;;;;1.50;1.00;;;;;;;6.88;100.00;94767.09;109394;1266;22553;-81
2024/01/03 09:32:37;;;;;;;1.20;0.90;;;;;;;6.90;100.00;94766.89;109354;1265;24733;-81
2024/01/03 09:35:15;;;;;;;3.10;1.30;;;;;;;6.90;100.00;94762.58;109382;1254;22531;-82
2024/01/03 09:37:56;;;;;;;2.20;0.80;;;;;;;6.93;100.00;94764.89;106740;1266;5190699;-82
2024/01/03 09:40:36;;;;;;;2.30;1.00;;;;;;;7.00;100.00;94763.59;110745;1272;22388;-82
2024/01/03 09:43:22;;;;;;;2.50;1.30;;;;;;;7.01;100.00;94762.52;110746;1266;22189;-82
2024/01/03 09:46:10;;;;;;;1.40;1.00;;;;;;;7.03;100.00;94763.52;110769;1272;23283;-82
2024/01/03 09:48:53;;;;;;;2.60;1.10;;;;;;;7.04;100.00;94770.30;110681;1266;46821;-82
2024/01/03 09:51:37;;;;;;;2.60;0.80;;;;;;;7.07;100.00;94769.08;110727;1272;23403;-82
2024/01/03 09:54:15;;;;;;;3.10;1.10;;;;;;;7.07;100.00;94777.45;110715;1268;22277;-82
2024/01/03 09:56:56;;;;;;;2.20;1.40;;;;;;;7.07;100.00;94773.82;110765;1272;22276;-82
2024/01/03 09:59:44;;;;;;;1.80;1.10;;;;;;;7.07;100.00;94777.10;109972;1266;22516;-82
2024/01/03 10:02:19;;;;;;;2.90;1.10;;;;;;;7.12;100.00;94776.38;109381;1272;22559;-81
2024/01/03 10:04:56;;;;;;;3.20;1.50;;;;;;;7.18;100.00;94782.20;109282;1271;22579;-81
2024/01/03 10:07:45;;;;;;;2.20;1.20;;;;;;;7.24;100.00;94792.17;109345;1266;42178;-81
2024/01/03 10:10:36;;;;;;;2.00;1.10;;;;;;;7.28;100.00;94787.63;110718;1272;23008;-81
2024/01/03 10:13:28;;;;;;;2.00;1.40;;;;;;;7.33;100.00;94786.84;110602;1272;22808;-82
2024/01/03 10:16:18;;;;;;;3.30;1.50;;;;;;;7.40;100.00;94782.89;109376;1272;22517;-81
2024/01/03 10:19:07;;;;;;;2.70;0.90;;;;;;;7.42;100.00;94785.17;109305;1270;65667;-81
2024/01/03 10:21:41;;;;;;;2.00;0.80;;;;;;;7.46;100.00;94789.10;109397;1272;22517;-81
2024/01/03 10:24:13;;;;;;;1.90;1.20;;;;;;;7.55;100.00;94791.49;109333;1269;22560;-82
2024/01/03 10:27:00;;;;;;;3.50;1.70;;;;;;;7.65;100.00;94787.12;109376;1265;22481;-82
2024/01/03 10:29:33;;;;;;;2.10;1.10;;;;;;;7.72;99.72;94790.98;109443;1266;22665;-81
2024/01/03 10:32:17;;;;;;;2.00;0.90;;;;;;;7.68;99.49;94788.67;109352;1269;22529;-81
2024/01/03 10:38:17;;;;;;;2.80;1.20;;;;;;;7.67;99.18;94789.17;108007;1271;1755838;-82
2024/01/03 10:40:53;;;;;;;1.80;1.20;;;;;;;7.68;98.89;94786.44;110627;1272;23818;-81
2024/01/03 10:43:27;;;;;;;1.10;0.90;;;;;;;7.68;98.57;94790.11;109366;1272;22531;-82
2024/01/03 10:46:05;;;;;;;1.60;0.80;;;;;;;7.67;98.48;94794.54;109236;1272;22597;-82
2024/01/03 10:48:41;;;;;;;2.20;1.20;;;;;;;7.72;98.18;94796.63;105322;1270;5114291;-82
2024/01/03 10:51:20;;;;;;;1.40;0.70;;;;;;;7.73;97.91;94791.35;109341;1254;22576;-82
2024/01/03 10:53:58;;;;;;;2.10;1.30;;;;;;;7.71;97.48;94800.97;109324;1266;22612;-82
2024/01/03 10:56:36;;;;;;;1.40;1.00;;;;;;;7.64;97.22;94793.41;110684;1266;23106;-82
2024/01/03 10:59:19;;;;;;;1.80;1.20;;;;;;;7.62;97.19;94800.85;110507;1272;59033;-82
2024/01/03 11:01:59;;;;;;;3.00;1.40;;;;;;;7.63;97.33;94795.92;109406;1266;24192;-82
2024/01/03 11:04:43;;;;;;;3.80;1.20;;;;;;;7.65;97.26;94784.95;109341;1272;22546;-82
2024/01/03 11:07:30;;;;;;;2.10;0.90;;;;;;;7.67;97.07;94786.29;108058;1267;1783839;-82
2024/01/03 11:10:05;;;;;;;1.60;1.10;;;;;;;7.67;96.87;94786.38;109391;1271;22624;-82
2024/01/03 11:12:40;;;;;;;2.30;1.40;;;;;;;7.65;96.84;94785.81;109373;1256;22593;-82
2024/01/03 11:15:31;;;;;;;1.90;1.10;;;;;;;7.63;96.78;94788.52;109380;1272;23095;-81
2024/01/03 11:18:08;;;;;;;0.80;0.60;;;;;;;7.60;96.73;94788.04;105508;1270;5125576;-81
2024/01/03 11:20:46;;;;;;;1.20;0.90;;;;;;;7.59;96.59;94788.16;109373;1272;24188;-82
2024/01/03 11:23:37;;;;;;;2.50;1.50;;;;;;;7.55;96.42;94780.64;109344;1254;22568;-82
2024/01/03 11:26:16;;;;;;;2.70;1.10;;;;;;;7.51;96.35;94788.08;109297;1266;22646;-82
2024/01/03 11:28:54;;;;;;;1.70;1.20;;;;;;;7.51;96.54;94790.96;109324;1272;42975;-81
2024/01/03 11:31:59;;;;;;;2.60;1.00;;;;;;;7.48;96.38;94784.41;109375;1270;22905;-81
2024/01/03 11:34:47;;;;;;;1.40;1.10;;;;;;;7.46;96.52;94786.04;109378;1272;22672;-82
2024/01/03 11:37:38;;;;;;;2.10;1.10;;;;;;;7.44;96.43;94790.98;109352;1271;22547;-81
2024/01/03 11:40:24;;;;;;;1.60;0.90;;;;;;;7.43;96.50;94790.85;109375;1267;22467;-81
2024/01/03 11:43:07;;;;;;;2.30;1.10;;;;;;;7.43;96.47;94798.11;110780;1272;22342;-82
2024/01/03 11:45:42;;;;;;;2.20;1.40;;;;;;;7.44;96.26;94796.13;110621;1266;22184;-82
2024/01/03 11:48:22;;;;;;;2.10;1.30;;;;;;;7.44;96.21;94793.23;110694;1271;64384;-82
2024/01/03 11:50:58;;;;;;;1.20;0.60;;;;;;;7.46;96.32;94787.24;110710;1269;22223;-82
2024/01/03 11:53:37;;;;;;;2.50;1.20;;;;;;;7.48;96.11;94784.04;110723;1271;22195;-82
2024/01/03 11:56:39;;;;;;;1.90;1.20;;;;;;;7.47;96.04;94774.66;110644;1266;22928;-82
2024/01/03 11:59:26;;;;;;;1.70;0.80;;;;;;;7.51;95.85;94784.23;110217;1276;48075;-82
2024/01/03 12:02:08;;;;;;;1.10;0.80;;;;;;;7.52;95.54;94786.47;109018;1276;22687;-82
2024/01/03 12:04:45;;;;;;;1.60;1.00;;;;;;;7.51;95.07;94790.27;109072;1276;23716;-82
2024/01/03 12:07:32;;;;;;;2.90;1.40;;;;;;;7.51;94.82;94780.54;109032;1276;22603;-81
2024/01/03 12:10:11;;;;;;;3.20;1.00;;;;;;;7.48;94.35;94781.40;108959;1260;24224;-81
2024/01/03 12:12:51;;;;;;;2.80;1.20;;;;;;;7.44;94.16;94781.86;108977;1276;22560;-81
2024/01/03 12:15:42;;;;;;;2.70;0.50;;;;;;;7.43;94.20;94779.63;108960;1270;22605;-82
2024/01/03 12:18:20;;;;;;;;;;;;;;;7.48;94.15;94779.29;108966;1270;59331;-82
2024/01/03 12:21:16;;;;;;;2.30;0.80;;;;;;;7.49;94.16;94777.62;109088;1270;24174;-82
2024/01/03 12:23:59;;;;;;;1.80;0.90;;;;;;;7.48;94.05;94782.45;109011;1276;24247;-82
2024/01/03 12:26:50;;;;;;;1.40;0.70;;;;;;;7.52;93.73;94775.39;109040;1272;22684;-81
2024/01/03 12:29:26;;;;;;;2.00;1.00;;;;;;;7.59;93.41;94776.78;105124;1273;5040656;-81
2024/01/03 12:32:19;;;;;;;3.40;1.60;;;;;;;7.64;93.16;94778.98;108987;1270;22615;-82
2024/01/03 12:35:20;;;;;;;1.60;0.90;;;;;;;7.64;92.90;94779.89;110298;1276;22204;-82
2024/01/03 12:37:56;;;;;;;1.20;0.60;;;;;;;7.67;92.24;94781.20;110198;1276;70665;-82
2024/01/03 12:40:38;;;;;;;1.90;1.20;;;;;;;7.70;91.97;94777.42;110266;1270;22337;-82
2024/01/03 12:43:18;;;;;;;2.70;1.30;;;;;;;7.70;91.77;94780.06;110283;1270;22976;-82
2024/01/03 12:46:14;;;;;;;2.20;1.50;;;;;;;7.70;91.70;94780.74;110279;1276;22254;-82
2024/01/03 12:49:03;;;;;;;2.60;1.30;;;;;;;7.69;91.69;94783.96;110232;1276;49321;-82